Time;durP1;ratioP1;P1;durP2;ratioP2;P2;SDS_P1;SDS_P2;PMS_P1;PMS_P2;Temp;Humidity;BMP_temperature;BMP_pressure;BME280_temperature;BME280_humidity;BME280_pressure;Samples;Min_cycle;Max_cycle;Signal;HPM_P1;HPM_P2
2023/05/18 00:03:28;;;;;;;9.10;4.90;;;;;;;8.80;94.90;101121.52;176874;1267;59558;-86
2023/05/18 00:07:36;;;;;;;7.30;5.10;;;;;;;8.81;95.24;101123.61;177795;1267;45937;-86
2023/05/18 00:11:39;;;;;;;11.60;7.10;;;;;;;8.82;95.37;101123.34;176725;1265;46197;-87
2023/05/18 00:15:43;;;;;;;9.20;4.80;;;;;;;8.83;95.39;101121.54;176781;1267;46157;-86
2023/05/18 00:19:46;;;;;;;11.30;6.40;;;;;;;8.82;95.47;101126.71;177133;1266;46068;-86
2023/05/18 00:23:50;;;;;;;16.30;6.60;;;;;;;8.82;95.36;101131.13;177069;1270;58047;-86
2023/05/18 00:27:53;;;;;;;11.70;6.00;;;;;;;8.85;95.22;101136.46;176962;1265;46145;-86
2023/05/18 00:31:56;;;;;;;13.60;6.30;;;;;;;8.83;94.82;101132.48;176817;1267;46123;-87
2023/05/18 00:36:00;;;;;;;11.20;7.30;;;;;;;8.82;94.71;101131.31;176773;1267;46014;-87
2023/05/18 00:40:05;;;;;;;13.60;6.60;;;;;;;8.80;94.48;101128.77;176814;1268;45986;-87
2023/05/18 00:44:09;;;;;;;8.60;4.90;;;;;;;8.75;94.57;101131.02;176513;1267;59661;-87
2023/05/18 00:48:12;;;;;;;6.60;4.80;;;;;;;8.69;94.70;101144.30;176378;1266;46255;-87
2023/05/18 00:52:15;;;;;;;16.30;6.10;;;;;;;8.64;94.76;101145.80;176930;1267;46041;-86
2023/05/18 00:56:22;;;;;;;22.30;5.50;;;;;;;8.61;94.63;101150.77;176549;1267;45996;-88
2023/05/18 01:00:27;;;;;;;8.10;5.40;;;;;;;8.55;94.55;101161.59;177815;1269;45902;-87
2023/05/18 01:04:30;;;;;;;8.90;5.20;;;;;;;8.53;94.43;101175.85;178987;1267;57933;-87
2023/05/18 01:08:35;;;;;;;16.40;6.00;;;;;;;8.52;94.78;101177.13;178950;1267;46175;-87
2023/05/18 01:12:52;;;;;;;8.60;6.20;;;;;;;8.53;94.84;101176.87;178114;1267;46038;-86
2023/05/18 01:17:00;;;;;;;9.50;5.70;;;;;;;8.49;94.72;101183.15;177515;1267;46089;-87
2023/05/18 01:21:12;;;;;;;12.20;5.60;;;;;;;8.40;94.84;101189.08;178329;1266;44699;-86
2023/05/18 01:25:53;;;;;;;9.40;4.80;;;;;;;8.36;94.93;101193.38;178426;1269;57884;-86
2023/05/18 01:29:57;;;;;;;11.70;5.60;;;;;;;8.31;94.92;101196.70;178965;1264;44613;-86
2023/05/18 01:34:00;;;;;;;15.10;4.80;;;;;;;8.28;94.88;101197.24;178570;1266;44184;-86
2023/05/18 01:38:03;;;;;;;19.80;4.70;;;;;;;8.28;94.76;101200.06;178349;1266;46065;-85
2023/05/18 01:42:12;;;;;;;8.10;5.00;;;;;;;8.32;94.85;101201.92;177939;1270;46145;-86
2023/05/18 01:46:48;;;;;;;12.60;5.40;;;;;;;8.40;94.54;101209.42;177300;1267;57800;-87
2023/05/18 01:50:56;;;;;;;10.00;5.20;;;;;;;8.42;93.80;101213.92;177409;1267;46590;-85
2023/05/18 01:55:03;;;;;;;12.10;6.20;;;;;;;8.40;94.08;101218.10;177285;1269;46291;-84
2023/05/18 01:59:06;;;;;;;8.70;4.80;;;;;;;8.38;93.47;101216.58;178129;1267;48087;-85
2023/05/18 02:03:12;;;;;;;6.60;4.70;;;;;;;8.37;93.20;101217.56;178608;1267;44576;-85
2023/05/18 02:07:15;;;;;;;9.90;5.40;;;;;;;8.33;93.40;101218.66;178629;1268;56935;-85
2023/05/18 02:11:18;;;;;;;7.60;5.10;;;;;;;8.32;93.36;101218.38;177495;1268;46177;-85
2023/05/18 02:15:21;;;;;;;5.60;3.80;;;;;;;8.30;92.30;101220.08;178015;1268;46212;-85
2023/05/18 02:19:24;;;;;;;11.80;6.00;;;;;;;8.24;92.20;101216.33;177412;1267;45959;-86
2023/05/18 02:23:27;;;;;;;9.90;6.10;;;;;;;8.19;92.26;101213.65;177991;1267;45346;-86
2023/05/18 02:27:32;;;;;;;6.20;4.00;;;;;;;8.13;92.05;101211.85;177857;1267;59307;-87
2023/05/18 02:31:36;;;;;;;7.80;4.80;;;;;;;8.11;92.07;101214.60;177969;1269;46153;-88
2023/05/18 02:35:42;;;;;;;11.60;5.00;;;;;;;8.08;91.73;101217.41;177773;1268;46095;-87
2023/05/18 02:39:45;;;;;;;6.00;3.70;;;;;;;8.00;91.32;101219.43;177350;1270;46004;-87
2023/05/18 02:43:48;;;;;;;9.10;4.70;;;;;;;7.93;91.84;101219.67;176279;1267;46212;-87
2023/05/18 02:47:51;;;;;;;6.90;4.10;;;;;;;7.86;92.26;101220.92;176594;1268;59669;-87
2023/05/18 02:51:55;;;;;;;5.70;4.20;;;;;;;7.82;92.64;101224.86;176596;1270;45969;-87
2023/05/18 02:56:02;;;;;;;13.90;4.50;;;;;;;7.77;92.82;101225.16;177168;1266;46123;-90
2023/05/18 03:00:13;;;;;;;12.30;4.80;;;;;;;7.74;92.92;101232.19;177376;1266;46137;-88
2023/05/18 03:04:17;;;;;;;24.00;6.40;;;;;;;7.74;93.11;101239.24;177505;1265;46072;-90
2023/05/18 03:08:25;;;;;;;6.10;4.50;;;;;;;7.76;93.30;101240.94;176855;1266;59333;-90
2023/05/18 03:12:30;;;;;;;11.80;4.60;;;;;;;7.72;93.56;101238.68;176595;1265;46097;-89
2023/05/18 03:16:33;;;;;;;8.60;5.10;;;;;;;7.69;93.65;101242.54;176835;1267;46030;-88
2023/05/18 03:20:36;;;;;;;25.40;5.20;;;;;;;7.67;94.21;101245.29;177059;1266;46136;-89
2023/05/18 03:24:40;;;;;;;5.10;4.10;;;;;;;7.68;95.24;101245.77;177134;1267;47525;-90
2023/05/18 03:28:43;;;;;;;14.20;6.20;;;;;;;7.69;95.89;101242.52;176769;1267;58381;-90
2023/05/18 03:32:46;;;;;;;7.10;3.60;;;;;;;7.71;96.63;101243.32;177433;1270;46127;-90
2023/05/18 03:36:51;;;;;;;5.20;3.60;;;;;;;7.72;97.61;101242.88;177104;1266;46717;-89
2023/05/18 03:40:54;;;;;;;7.30;5.00;;;;;;;7.73;98.35;101242.83;177561;1267;46044;-89
2023/05/18 03:44:57;;;;;;;8.90;4.80;;;;;;;7.62;99.82;101247.66;176785;1269;46159;-89
2023/05/18 03:49:02;;;;;;;7.70;5.80;;;;;;;7.49;100.00;101250.31;177012;1270;58314;-91
2023/05/18 03:53:05;;;;;;;21.30;4.30;;;;;;;7.42;100.00;101251.38;177498;1264;46127;-89
2023/05/18 03:57:09;;;;;;;6.70;4.50;;;;;;;7.38;100.00;101263.23;177046;1267;46006;-86
2023/05/18 04:01:12;;;;;;;4.40;3.50;;;;;;;7.37;100.00;101273.17;176616;1266;44688;-86
2023/05/18 04:05:15;;;;;;;11.70;5.00;;;;;;;7.49;100.00;101280.97;176667;1265;46528;-90
2023/05/18 04:09:19;;;;;;;9.30;4.10;;;;;;;7.58;100.00;101288.48;177356;1266;57947;-89
2023/05/18 04:13:23;;;;;;;7.20;3.80;;;;;;;7.69;100.00;101290.17;177270;1266;45581;-87
2023/05/18 04:17:26;;;;;;;9.30;4.30;;;;;;;7.78;100.00;101285.81;176293;1267;46061;-87
2023/05/18 04:21:34;;;;;;;9.40;4.70;;;;;;;7.87;100.00;101290.48;176386;1269;46183;-85
2023/05/18 04:25:40;;;;;;;7.50;4.90;;;;;;;8.06;100.00;101292.45;177788;1265;46180;-87
2023/05/18 04:29:43;;;;;;;6.00;5.20;;;;;;;8.77;100.00;101296.95;177280;1266;59611;-87
2023/05/18 04:33:50;;;;;;;7.40;3.70;;;;;;;10.01;100.00;101293.45;177394;1265;46086;-90
2023/05/18 04:37:53;;;;;;;9.90;4.80;;;;;;;11.19;99.12;101290.77;178725;1266;46182;-87
2023/05/18 04:41:57;;;;;;;9.80;4.20;;;;;;;12.32;88.85;101285.91;179810;1265;45920;-88
2023/05/18 04:46:01;;;;;;;12.30;4.60;;;;;;;13.22;81.01;101288.45;179124;1268;82862;-61
2023/05/18 04:50:06;;;;;;;7.70;3.40;;;;;;;14.02;76.82;101288.15;179256;1267;58503;-61
2023/05/18 04:54:11;;;;;;;9.70;3.80;;;;;;;14.77;71.39;101291.84;179104;1267;45100;-61
2023/05/18 04:58:16;;;;;;;8.20;3.80;;;;;;;15.63;72.29;101289.80;178968;1261;86076;-88
2023/05/18 05:02:20;;;;;;;9.00;3.40;;;;;;;16.31;66.02;101284.93;177733;1267;44755;-91
2023/05/18 05:06:23;;;;;;;7.50;3.70;;;;;;;16.75;64.67;101291.02;177744;1269;45938;-90
2023/05/18 05:10:27;;;;;;;11.30;4.00;;;;;;;16.92;62.50;101285.09;177238;1267;59011;-83
2023/05/18 05:14:30;;;;;;;9.20;4.60;;;;;;;17.31;60.38;101284.54;177168;1267;46019;-90
2023/05/18 05:18:33;;;;;;;10.00;4.20;;;;;;;17.74;58.52;101286.72;177048;1267;46094;-91
2023/05/18 05:22:36;;;;;;;9.00;3.70;;;;;;;18.13;58.80;101284.67;176943;1267;46008;-86
2023/05/18 05:26:40;;;;;;;8.70;3.70;;;;;;;18.50;56.89;101278.10;176362;1266;46117;-86
2023/05/18 05:30:43;;;;;;;6.60;3.50;;;;;;;18.83;54.65;101282.27;176436;1267;60980;-85
2023/05/18 05:34:49;;;;;;;4.60;2.90;;;;;;;18.78;52.62;101282.78;177364;1267;46174;-86
2023/05/18 05:38:52;;;;;;;7.10;3.90;;;;;;;18.69;52.32;101284.36;176922;1267;46354;-89
2023/05/18 05:42:55;;;;;;;6.50;2.90;;;;;;;18.71;52.17;101288.14;177663;1267;46135;-87
2023/05/18 05:46:58;;;;;;;7.40;3.50;;;;;;;18.57;51.94;101284.48;177941;1267;46069;-86
2023/05/18 05:51:02;;;;;;;11.90;3.40;;;;;;;18.60;51.98;101286.85;177758;1267;58683;-86
2023/05/18 05:55:05;;;;;;;8.20;2.40;;;;;;;18.77;52.71;101286.05;177617;1267;46117;-85
2023/05/18 05:59:09;;;;;;;4.40;2.60;;;;;;;18.96;51.91;101287.73;177525;1267;46237;-85
2023/05/18 06:03:12;;;;;;;11.50;3.20;;;;;;;18.96;50.56;101288.11;177302;1267;46300;-86
2023/05/18 06:07:16;;;;;;;18.60;7.20;;;;;;;18.84;50.63;101292.58;177657;1268;46174;-87
2023/05/18 06:11:22;;;;;;;7.20;3.00;;;;;;;18.64;49.37;101292.56;177501;1268;58336;-90
2023/05/18 06:15:25;;;;;;;6.10;1.70;;;;;;;17.83;49.32;101301.73;177333;1267;215101;-85
2023/05/18 06:19:29;;;;;;;5.50;2.50;;;;;;;17.16;51.63;101303.55;176595;1267;44128;-85
2023/05/18 06:23:32;;;;;;;6.90;2.30;;;;;;;16.55;51.46;101306.41;178358;1266;45969;-86
2023/05/18 06:27:35;;;;;;;5.60;1.90;;;;;;;15.96;51.71;101319.16;176602;1268;46107;-88
2023/05/18 06:31:39;;;;;;;5.60;2.30;;;;;;;15.69;52.38;101320.05;176995;1266;59622;-85
2023/05/18 06:35:42;;;;;;;3.90;1.80;;;;;;;15.58;52.67;101321.52;178281;1268;45999;-85
2023/05/18 06:39:45;;;;;;;7.40;2.50;;;;;;;15.37;53.28;101324.04;176774;1268;46056;-87
2023/05/18 06:43:49;;;;;;;3.70;2.10;;;;;;;15.31;54.95;101326.48;176189;1266;46034;-85
2023/05/18 06:47:52;;;;;;;2.90;1.80;;;;;;;15.46;54.91;101329.20;176355;1267;46053;-87
2023/05/18 06:51:55;;;;;;;10.70;2.20;;;;;;;15.76;53.72;101326.02;176450;1269;59634;-87
2023/05/18 06:55:58;;;;;;;8.20;1.70;;;;;;;15.64;52.69;101326.52;177179;1267;46622;-86
2023/05/18 07:00:05;;;;;;;2.30;1.30;;;;;;;15.46;52.88;101332.35;176510;1267;46052;-85
2023/05/18 07:04:09;;;;;;;5.40;1.70;;;;;;;15.37;53.55;101330.87;177053;1267;46146;-85
2023/05/18 07:08:12;;;;;;;5.80;1.30;;;;;;;15.18;54.41;101328.09;178083;1266;46115;-85
2023/05/18 07:12:15;;;;;;;2.50;0.90;;;;;;;15.08;55.08;101330.27;176314;1268;58783;-85
2023/05/18 07:16:18;;;;;;;4.80;2.00;;;;;;;14.96;54.11;101329.41;177015;1270;46046;-85
2023/05/18 07:20:21;;;;;;;2.70;1.30;;;;;;;14.61;53.73;101331.16;176360;1270;46218;-85
2023/05/18 07:24:27;;;;;;;5.70;1.50;;;;;;;14.51;55.33;101325.96;176139;1267;46143;-85
2023/05/18 07:28:30;;;;;;;3.10;1.40;;;;;;;14.52;55.76;101329.95;175921;1270;46112;-85
2023/05/18 07:32:33;;;;;;;10.30;2.70;;;;;;;14.60;55.06;101324.64;176280;1267;57990;-86
2023/05/18 07:36:36;;;;;;;9.00;2.30;;;;;;;14.62;55.35;101322.59;176513;1268;46234;-85
2023/05/18 07:40:39;;;;;;;4.70;1.80;;;;;;;14.63;54.79;101326.23;176717;1270;46216;-85
2023/05/18 07:44:42;;;;;;;4.50;1.90;;;;;;;14.70;55.44;101329.05;176913;1266;46049;-85
2023/05/18 07:48:45;;;;;;;2.60;1.20;;;;;;;14.66;54.67;101332.75;176157;1270;46112;-86
2023/05/18 07:52:48;;;;;;;5.80;1.60;;;;;;;14.64;54.22;101330.96;176287;1270;59418;-84
2023/05/18 07:56:51;;;;;;;10.70;1.60;;;;;;;14.59;54.28;101331.56;176454;1268;46063;-84
2023/05/18 08:00:54;;;;;;;3.60;1.00;;;;;;;14.52;54.07;101327.27;175993;1268;45935;-85
2023/05/18 08:04:57;;;;;;;3.30;1.20;;;;;;;14.46;56.19;101327.09;176939;1270;46087;-86
2023/05/18 08:09:00;;;;;;;5.50;1.90;;;;;;;14.35;53.82;101331.02;176659;1268;46162;-86
2023/05/18 08:13:03;;;;;;;4.20;1.20;;;;;;;14.35;54.62;101331.69;176508;1267;59666;-86
2023/05/18 08:17:06;;;;;;;3.20;1.50;;;;;;;14.28;55.13;101329.02;176795;1267;46038;-85
2023/05/18 08:21:09;;;;;;;3.10;1.60;;;;;;;14.41;55.74;101323.38;176745;1268;46014;-86
2023/05/18 08:25:12;;;;;;;5.40;2.00;;;;;;;14.59;55.46;101323.50;176586;1267;46010;-86
2023/05/18 08:29:15;;;;;;;9.90;2.30;;;;;;;14.66;55.77;101323.45;176544;1270;46140;-86
2023/05/18 08:33:18;;;;;;;4.80;1.80;;;;;;;14.72;55.04;101326.17;176450;1267;58457;-86
2023/05/18 08:37:27;;;;;;;12.40;1.40;;;;;;;14.78;54.92;101325.05;176150;1267;45996;-85
2023/05/18 08:41:37;;;;;;;3.90;0.90;;;;;;;14.69;53.96;101322.52;176742;1269;46124;-87
2023/05/18 08:46:06;;;;;;;2.60;1.50;;;;;;;14.64;54.26;101325.06;176778;1268;46174;-86
2023/05/18 08:50:13;;;;;;;4.50;1.50;;;;;;;14.57;54.11;101321.67;176160;1268;46133;-87
2023/05/18 08:54:21;;;;;;;6.90;1.40;;;;;;;14.62;54.04;101318.77;177091;1267;58366;-86
2023/05/18 08:58:41;;;;;;;3.90;1.40;;;;;;;14.50;53.98;101319.98;177212;1268;46143;-86
2023/05/18 09:02:46;;;;;;;4.20;1.50;;;;;;;14.50;54.17;101324.04;176812;1267;46239;-86
2023/05/18 09:06:53;;;;;;;3.10;1.80;;;;;;;14.53;54.95;101321.47;176775;1268;46161;-86
2023/05/18 09:10:57;;;;;;;7.60;1.60;;;;;;;14.58;54.44;101320.23;176053;1270;46146;-88
2023/05/18 09:15:02;;;;;;;8.70;1.60;;;;;;;14.69;54.89;101315.89;177540;1270;59793;-87
2023/05/18 09:19:05;;;;;;;2.70;1.30;;;;;;;14.78;54.13;101310.88;176304;1267;46146;-87
2023/05/18 09:23:10;;;;;;;11.20;1.00;;;;;;;14.93;54.33;101311.66;176647;1267;46594;-87
2023/05/18 09:27:13;;;;;;;1.60;1.00;;;;;;;14.96;54.39;101318.86;176417;1267;46072;-87
2023/05/18 09:31:19;;;;;;;5.80;1.90;;;;;;;15.09;54.11;101320.66;176094;1268;46016;-87
2023/05/18 09:35:24;;;;;;;5.70;1.40;;;;;;;15.21;54.43;101321.07;177162;1267;58096;-88
2023/05/18 09:39:27;;;;;;;4.30;1.40;;;;;;;15.30;54.65;101323.36;176199;1268;46066;-88
2023/05/18 09:43:30;;;;;;;2.50;1.40;;;;;;;15.43;54.22;101326.02;176274;1270;45208;-84
2023/05/18 09:47:33;;;;;;;3.50;1.30;;;;;;;15.68;54.13;101319.60;177085;1267;46115;-84
2023/05/18 09:51:37;;;;;;;7.70;1.70;;;;;;;15.96;53.39;101315.73;176935;1266;46079;-85
2023/05/18 09:55:46;;;;;;;3.30;1.20;;;;;;;16.25;52.75;101314.66;176161;1271;57933;-86
2023/05/18 10:00:02;;;;;;;4.40;2.60;;;;;;;16.49;52.67;101299.82;177137;1268;46027;-86
2023/05/18 10:04:06;;;;;;;;;;;;;;;16.83;53.67;101301.52;176229;1271;46223;-86
2023/05/18 10:08:12;;;;;;;1.90;1.40;;;;;;;16.95;51.98;101302.57;176249;1268;45954;-86
2023/05/18 10:12:18;;;;;;;23.10;2.60;;;;;;;16.98;52.33;101296.02;176667;1270;46554;-86
2023/05/18 10:16:22;;;;;;;;;;;;;;;16.85;52.19;101298.83;176776;1268;58107;-86
2023/05/18 10:20:26;;;;;;;4.80;1.90;;;;;;;16.62;52.16;101298.58;176435;1267;45934;-87
2023/05/18 10:24:34;;;;;;;7.50;1.80;;;;;;;16.47;53.46;101300.32;176963;1270;46059;-87
2023/05/18 10:28:41;;;;;;;3.80;1.40;;;;;;;16.39;53.36;101301.20;176410;1269;46014;-85
2023/05/18 10:32:45;;;;;;;1.60;1.30;;;;;;;16.21;52.52;101307.80;176494;1270;46127;-86
2023/05/18 10:36:48;;;;;;;15.90;3.20;;;;;;;16.03;54.02;101311.60;176830;1266;59317;-86
2023/05/18 10:40:54;;;;;;;3.80;1.70;;;;;;;15.99;53.69;101306.92;176146;1269;46005;-86
2023/05/18 10:45:00;;;;;;;;;;;;;;;16.00;52.73;101303.73;177105;1269;46260;-88
2023/05/18 10:49:04;;;;;;;7.10;1.90;;;;;;;16.00;52.40;101300.77;176757;1267;45927;-87
2023/05/18 10:53:09;;;;;;;5.20;1.60;;;;;;;16.02;53.55;101294.51;176920;1271;46120;-86
2023/05/18 10:57:15;;;;;;;6.30;2.00;;;;;;;16.20;54.50;101296.67;176108;1267;60677;-86
2023/05/18 11:01:19;;;;;;;4.80;1.70;;;;;;;16.34;54.92;101298.09;177107;1268;44785;-85
2023/05/18 11:05:23;;;;;;;4.70;2.00;;;;;;;16.53;53.96;101295.10;177114;1267;46065;-87
2023/05/18 11:09:28;;;;;;;4.50;1.80;;;;;;;16.72;52.16;101292.38;176770;1267;46162;-86
2023/05/18 11:13:33;;;;;;;2.90;1.40;;;;;;;16.68;50.77;101291.30;176498;1267;45995;-85
2023/05/18 11:17:36;;;;;;;8.60;2.30;;;;;;;16.88;50.96;101284.24;176436;1270;58013;-86
2023/05/18 11:21:41;;;;;;;2.70;1.30;;;;;;;17.05;52.38;101282.33;177110;1267;45993;-86
2023/05/18 11:25:44;;;;;;;7.70;1.80;;;;;;;17.16;50.84;101280.61;176726;1267;46448;-86
2023/05/18 11:29:47;;;;;;;6.90;1.90;;;;;;;17.30;50.43;101276.25;176476;1267;46031;-86
2023/05/18 11:33:55;;;;;;;5.40;1.60;;;;;;;17.44;51.41;101277.95;177172;1267;46171;-87
2023/05/18 11:38:06;;;;;;;3.00;1.10;;;;;;;17.47;50.59;101276.25;176317;1270;59482;-86
2023/05/18 11:42:13;;;;;;;2.40;1.90;;;;;;;17.34;50.18;101279.80;176908;1269;46011;-86
2023/05/18 11:46:21;;;;;;;1.40;1.10;;;;;;;17.35;49.32;101281.49;176309;1268;46202;-86
2023/05/18 11:50:24;;;;;;;1.70;1.30;;;;;;;17.32;50.57;101279.09;175884;1269;46482;-86
2023/05/18 11:54:28;;;;;;;4.40;0.90;;;;;;;17.16;49.47;101277.58;176299;1270;47261;-87
2023/05/18 11:58:32;;;;;;;4.20;1.40;;;;;;;17.20;50.99;101270.55;176663;1268;58280;-86
2023/05/18 12:02:35;;;;;;;2.40;1.70;;;;;;;17.23;51.60;101276.05;176514;1268;46105;-86
2023/05/18 12:06:39;;;;;;;5.40;1.60;;;;;;;17.22;51.29;101269.23;177265;1267;46254;-85
2023/05/18 12:10:47;;;;;;;2.80;1.30;;;;;;;17.25;52.58;101268.42;176210;1270;46155;-86
2023/05/18 12:14:58;;;;;;;7.10;1.30;;;;;;;17.36;51.77;101266.41;176851;1266;46138;-85
2023/05/18 12:19:02;;;;;;;2.90;2.00;;;;;;;17.59;51.34;101261.70;176471;1267;59196;-87
2023/05/18 12:23:05;;;;;;;2.90;1.40;;;;;;;17.56;50.87;101258.52;176206;1267;46001;-86
2023/05/18 12:27:10;;;;;;;1.90;1.60;;;;;;;17.42;50.51;101258.80;176440;1271;46063;-85
2023/05/18 12:31:14;;;;;;;2.90;1.30;;;;;;;17.39;50.49;101249.92;176697;1267;46137;-84
2023/05/18 12:35:25;;;;;;;3.70;1.70;;;;;;;17.43;53.45;101242.55;176322;1266;46024;-86
2023/05/18 12:39:29;;;;;;;5.60;2.30;;;;;;;17.55;52.22;101233.02;176727;1267;59620;-86
2023/05/18 12:43:35;;;;;;;3.20;2.00;;;;;;;17.61;54.39;101241.70;176855;1267;46125;-87
2023/05/18 12:47:41;;;;;;;5.30;2.00;;;;;;;17.59;51.37;101236.19;176334;1271;46268;-87
2023/05/18 12:51:44;;;;;;;;;;;;;;;17.66;52.51;101239.27;176791;1268;46097;-87
2023/05/18 12:55:58;;;;;;;2.20;1.30;;;;;;;17.80;50.52;101233.48;176862;1267;45937;-87
2023/05/18 13:00:09;;;;;;;3.10;1.80;;;;;;;17.63;52.03;101225.98;176803;1267;59592;-87
2023/05/18 13:04:12;;;;;;;1.60;1.20;;;;;;;17.64;52.85;101222.27;176696;1272;47264;-87
2023/05/18 13:08:20;;;;;;;2.80;1.60;;;;;;;17.58;52.18;101225.02;176360;1267;46423;-87
2023/05/18 13:12:48;;;;;;;2.30;1.50;;;;;;;17.95;52.13;101221.11;177233;1267;44903;-87
2023/05/18 13:16:51;;;;;;;1.50;1.10;;;;;;;18.06;52.46;101223.54;177323;1267;46131;-86
2023/05/18 13:20:57;;;;;;;4.90;1.40;;;;;;;17.96;50.99;101218.86;177259;1270;59523;-87
2023/05/18 13:25:00;;;;;;;2.70;1.40;;;;;;;18.06;52.85;101210.85;177759;1266;46094;-87
2023/05/18 13:45:50;;;;;;;2.40;1.20;;;;;;;18.16;52.14;101189.10;180812;1270;58231;-57
2023/05/18 13:49:54;;;;;;;2.90;1.40;;;;;;;18.37;50.52;101185.36;180745;1270;43113;-56
2023/05/18 13:54:00;;;;;;;2.60;1.20;;;;;;;18.46;51.17;101183.38;180630;1270;43084;-56
2023/05/18 13:58:03;;;;;;;5.20;2.00;;;;;;;18.52;50.41;101180.06;180740;1270;44059;-57
2023/05/18 14:02:06;;;;;;;3.80;1.10;;;;;;;18.46;50.96;101182.27;180766;1270;43490;-58
2023/05/18 14:06:26;;;;;;;2.80;2.00;;;;;;;18.39;50.46;101181.43;180795;1273;58113;-58
2023/05/18 14:15:24;;;;;;;2.50;1.60;;;;;;;18.56;50.58;101171.96;177370;1269;43579;-58
2023/05/18 14:19:28;;;;;;;3.00;1.00;;;;;;;18.72;48.65;101171.24;180463;1269;43699;-57
2023/05/18 14:23:34;;;;;;;2.20;1.20;;;;;;;18.92;49.14;101165.75;180817;1269;43746;-57
2023/05/18 14:27:37;;;;;;;3.30;1.40;;;;;;;19.17;48.10;101160.95;180799;1270;58378;-57
2023/05/18 14:37:12;;;;;;;2.50;1.50;;;;;;;19.23;46.75;101154.17;180829;1269;43126;-57
2023/05/18 14:41:17;;;;;;;2.70;1.50;;;;;;;19.32;45.21;101151.38;180646;1270;43125;-57
2023/05/18 14:45:20;;;;;;;1.20;0.90;;;;;;;19.40;46.80;101146.59;180843;1269;43076;-57
2023/05/18 14:49:24;;;;;;;2.20;1.20;;;;;;;19.43;48.19;101154.02;180805;1269;58042;-57
2023/05/18 14:53:30;;;;;;;2.20;1.10;;;;;;;19.52;46.40;101149.69;180709;1269;43945;-57
2023/05/18 14:57:32;;;;;;;3.90;1.20;;;;;;;19.63;45.45;101140.05;180843;1269;43181;-57
2023/05/18 15:01:44;;;;;;;3.20;1.60;;;;;;;19.61;42.65;101139.60;180828;1269;43147;-55
2023/05/18 15:21:59;;;;;;;3.20;1.50;;;;;;;19.73;44.76;101137.71;180922;1268;43621;-57
2023/05/18 15:26:03;;;;;;;4.40;1.50;;;;;;;19.70;44.54;101134.12;180906;1267;43564;-57
2023/05/18 15:30:11;;;;;;;4.00;1.00;;;;;;;19.70;44.17;101133.35;180858;1268;43130;-57
2023/05/18 15:34:16;;;;;;;5.90;1.90;;;;;;;19.84;44.28;101134.02;180940;1267;58675;-57
2023/05/18 15:38:24;;;;;;;5.40;2.60;;;;;;;19.95;43.93;101134.55;181012;1267;43861;-57
2023/05/18 15:42:32;;;;;;;2.00;1.10;;;;;;;19.87;43.03;101130.91;180979;1267;43081;-57
2023/05/18 15:46:40;;;;;;;2.60;1.70;;;;;;;19.73;43.66;101128.36;180881;1270;43713;-57
2023/05/18 15:50:44;;;;;;;1.10;0.90;;;;;;;19.52;44.63;101121.30;180999;1267;43487;-57
2023/05/18 15:54:46;;;;;;;1.40;0.90;;;;;;;19.45;44.69;101122.21;181021;1267;57854;-57
2023/05/18 15:58:50;;;;;;;2.10;1.60;;;;;;;19.50;45.41;101122.17;180908;1267;43069;-58
2023/05/18 16:02:53;;;;;;;3.30;1.50;;;;;;;19.62;45.61;101122.20;181024;1266;43064;-57
2023/05/18 16:06:57;;;;;;;3.70;1.30;;;;;;;19.64;45.36;101120.34;180966;1267;43673;-57
2023/05/18 16:11:01;;;;;;;2.10;1.40;;;;;;;19.61;45.54;101121.61;181001;1267;43120;-57
2023/05/18 16:15:04;;;;;;;1.80;1.00;;;;;;;19.51;46.29;101122.07;181019;1266;58476;-58
2023/05/18 16:19:10;;;;;;;2.00;0.90;;;;;;;19.41;47.99;101118.07;180908;1266;43188;-57
2023/05/18 16:24:06;;;;;;;7.10;2.60;;;;;;;19.20;47.56;101123.25;180910;1267;43707;-57
2023/05/18 16:28:10;;;;;;;0.70;0.60;;;;;;;18.90;48.06;101127.90;180980;1267;43349;-57
2023/05/18 16:32:13;;;;;;;1.80;1.20;;;;;;;18.73;47.83;101125.20;180939;1269;43145;-57
2023/05/18 16:36:16;;;;;;;1.10;0.90;;;;;;;18.44;47.06;101128.27;180947;1268;57514;-57
2023/05/18 16:47:07;;;;;;;2.40;1.00;;;;;;;18.20;49.46;101130.11;178823;1270;85497;-56
2023/05/18 16:51:13;;;;;;;2.60;1.90;;;;;;;18.13;49.94;101130.89;179929;1263;43736;-56
2023/05/18 16:55:17;;;;;;;3.10;1.00;;;;;;;17.98;50.08;101130.80;172564;1262;10165192;-55
2023/05/18 16:59:21;;;;;;;2.90;1.00;;;;;;;17.85;49.90;101132.39;180205;1262;45032;-56
2023/05/18 17:03:33;;;;;;;1.60;1.30;;;;;;;17.72;50.65;101130.71;180274;1260;44933;-56
2023/05/18 17:07:37;;;;;;;2.50;1.70;;;;;;;17.67;51.67;101131.02;180299;1262;43888;-56
2023/05/18 17:11:42;;;;;;;3.40;0.70;;;;;;;17.69;53.11;101133.52;180247;1262;43574;-56
2023/05/18 17:16:14;;;;;;;5.20;1.50;;;;;;;17.67;54.02;101129.06;180282;1262;58433;-56
2023/05/18 17:24:59;;;;;;;1.60;1.30;;;;;;;17.57;56.98;101126.51;179545;1262;86495;-56
2023/05/18 17:34:42;;;;;;;4.50;1.60;;;;;;;17.29;59.61;101124.55;181199;1264;43776;-56
2023/05/18 17:38:47;;;;;;;3.40;1.30;;;;;;;17.19;60.13;101126.77;181203;1264;58029;-56
2023/05/18 17:42:50;;;;;;;2.10;1.70;;;;;;;17.07;59.86;101127.00;181215;1264;43196;-56
2023/05/18 17:46:58;;;;;;;3.20;1.40;;;;;;;16.94;60.55;101133.41;181155;1264;43742;-57
2023/05/18 17:51:02;;;;;;;2.00;1.10;;;;;;;16.81;61.16;101136.19;181122;1264;43710;-56
2023/05/18 17:55:06;;;;;;;4.40;1.40;;;;;;;16.67;61.34;101139.49;181154;1265;43716;-56
2023/05/18 17:59:13;;;;;;;1.30;0.90;;;;;;;16.49;61.13;101143.64;181080;1264;58582;-56
2023/05/18 18:03:19;;;;;;;1.70;0.80;;;;;;;16.32;61.68;101144.15;181221;1264;43132;-56
2023/05/18 18:07:23;;;;;;;3.70;1.10;;;;;;;16.14;61.98;101142.55;181062;1266;43364;-56
2023/05/18 18:11:26;;;;;;;3.90;1.70;;;;;;;15.96;62.69;101139.57;181213;1264;43061;-56
2023/05/18 18:15:52;;;;;;;1.20;1.00;;;;;;;15.80;62.91;101142.23;181146;1263;44385;-56
2023/05/18 18:43:14;;;;;;;6.80;3.60;;;;;;;14.57;67.50;101166.02;181015;1266;43059;-57
2023/05/18 18:47:17;;;;;;;16.00;4.50;;;;;;;14.31;68.18;101170.88;180941;1266;58376;-57
2023/05/18 18:51:23;;;;;;;4.20;2.40;;;;;;;14.11;69.50;101174.38;181036;1265;43752;-58
2023/05/18 18:55:26;;;;;;;6.30;2.70;;;;;;;13.89;70.51;101174.34;181029;1267;43699;-57
2023/05/18 18:59:30;;;;;;;2.50;2.10;;;;;;;13.70;71.35;101179.21;181034;1264;43395;-56
2023/05/18 19:03:34;;;;;;;3.50;2.10;;;;;;;13.54;72.08;101177.88;181025;1267;43643;-58
2023/05/18 19:07:37;;;;;;;3.50;1.40;;;;;;;13.41;72.80;101182.77;181109;1264;59889;-56
2023/05/18 19:11:41;;;;;;;2.70;1.60;;;;;;;13.31;73.30;101184.98;180997;1265;43678;-57
2023/05/18 19:15:53;;;;;;;6.20;2.40;;;;;;;13.23;73.74;101186.66;181014;1266;43179;-57
2023/05/18 19:19:56;;;;;;;4.10;2.30;;;;;;;13.15;74.39;101192.45;181043;1265;43783;-57
2023/05/18 19:24:02;;;;;;;6.30;2.50;;;;;;;13.09;74.73;101197.70;181068;1265;43065;-57
2023/05/18 19:28:05;;;;;;;2.90;2.30;;;;;;;13.06;75.24;101202.48;180960;1267;59196;-57
2023/05/18 19:32:26;;;;;;;9.80;2.20;;;;;;;13.03;75.50;101208.91;181011;1267;43772;-57
2023/05/18 19:36:31;;;;;;;3.00;2.30;;;;;;;13.02;75.78;101213.77;180995;1267;43991;-57
2023/05/18 19:40:34;;;;;;;2.60;2.20;;;;;;;13.01;75.66;101210.67;180992;1267;43451;-56
2023/05/18 19:44:37;;;;;;;5.20;1.80;;;;;;;12.98;75.72;101211.95;180982;1265;43698;-57
2023/05/18 19:48:39;;;;;;;4.50;2.40;;;;;;;12.93;76.18;101213.35;181111;1265;59689;-58
2023/05/18 19:52:43;;;;;;;3.90;2.70;;;;;;;12.88;76.50;101216.83;181088;1264;43063;-58
2023/05/18 19:56:58;;;;;;;4.70;2.40;;;;;;;12.82;76.30;101217.76;181042;1267;43783;-58
2023/05/18 20:01:01;;;;;;;3.30;1.90;;;;;;;12.78;76.70;101222.94;181060;1265;43685;-58
2023/05/18 20:05:05;;;;;;;2.70;2.50;;;;;;;12.77;76.56;101226.86;181055;1267;43027;-58
2023/05/18 20:09:38;;;;;;;7.30;2.30;;;;;;;12.81;76.47;101231.63;180922;1265;58089;-58
2023/05/18 20:13:42;;;;;;;2.90;1.90;;;;;;;12.83;76.44;101238.35;181080;1266;43722;-58
2023/05/18 20:17:45;;;;;;;6.10;2.90;;;;;;;12.85;76.19;101249.23;181133;1264;43783;-57